sensor_id;sensor_type;location;lat;lon;timestamp;temperature;humidity
23685;DHT22;12020;51.384;6.908;2023-01-23T00:01:18;3.40;99.90
23685;DHT22;12020;51.384;6.908;2023-01-23T00:03:44;3.40;99.90
23685;DHT22;12020;51.384;6.908;2023-01-23T00:06:12;3.40;99.90
23685;DHT22;12020;51.384;6.908;2023-01-23T00:08:39;3.40;99.90
23685;DHT22;12020;51.384;6.908;2023-01-23T00:11:06;3.40;99.90
23685;DHT22;12020;51.384;6.908;2023-01-23T00:13:33;3.40;99.90
23685;DHT22;12020;51.384;6.908;2023-01-23T00:16:03;3.40;99.90
23685;DHT22;12020;51.384;6.908;2023-01-23T00:18:29;3.40;99.90
23685;DHT22;12020;51.384;6.908;2023-01-23T00:20:55;3.40;99.90
23685;DHT22;12020;51.384;6.908;2023-01-23T00:23:20;3.40;99.90
23685;DHT22;12020;51.384;6.908;2023-01-23T00:25:46;3.30;99.90
23685;DHT22;12020;51.384;6.908;2023-01-23T00:28:12;3.40;99.90
23685;DHT22;12020;51.384;6.908;2023-01-23T00:30:38;3.40;99.90
23685;DHT22;12020;51.384;6.908;2023-01-23T00:33:04;3.50;99.90
23685;DHT22;12020;51.384;6.908;2023-01-23T00:35:29;3.50;99.90
23685;DHT22;12020;51.384;6.908;2023-01-23T00:37:56;3.40;99.90
23685;DHT22;12020;51.384;6.908;2023-01-23T00:40:23;3.50;99.90
23685;DHT22;12020;51.384;6.908;2023-01-23T00:42:48;3.50;99.90
23685;DHT22;12020;51.384;6.908;2023-01-23T00:45:14;3.50;99.90
23685;DHT22;12020;51.384;6.908;2023-01-23T00:47:40;3.50;99.90
23685;DHT22;12020;51.384;6.908;2023-01-23T00:50:05;3.50;99.90
23685;DHT22;12020;51.384;6.908;2023-01-23T00:52:33;3.50;99.90
23685;DHT22;12020;51.384;6.908;2023-01-23T00:54:59;3.50;99.90
23685;DHT22;12020;51.384;6.908;2023-01-23T00:57:25;3.50;99.90
23685;DHT22;12020;51.384;6.908;2023-01-23T00:59:50;3.40;99.90
23685;DHT22;12020;51.384;6.908;2023-01-23T01:02:16;3.40;99.90
23685;DHT22;12020;51.384;6.908;2023-01-23T01:04:42;3.40;99.90
23685;DHT22;12020;51.384;6.908;2023-01-23T01:07:07;3.50;99.90
23685;DHT22;12020;51.384;6.908;2023-01-23T01:09:33;3.40;99.90
23685;DHT22;12020;51.384;6.908;2023-01-23T01:11:58;3.40;99.90
23685;DHT22;12020;51.384;6.908;2023-01-23T01:14:24;3.40;99.90
23685;DHT22;12020;51.384;6.908;2023-01-23T01:16:50;3.40;99.90
23685;DHT22;12020;51.384;6.908;2023-01-23T01:19:16;3.40;99.90
23685;DHT22;12020;51.384;6.908;2023-01-23T01:21:43;3.50;99.90
23685;DHT22;12020;51.384;6.908;2023-01-23T01:24:10;3.40;99.90
23685;DHT22;12020;51.384;6.908;2023-01-23T01:26:36;3.40;99.90
23685;DHT22;12020;51.384;6.908;2023-01-23T01:29:02;3.50;99.90
23685;DHT22;12020;51.384;6.908;2023-01-23T01:31:28;3.40;99.90
23685;DHT22;12020;51.384;6.908;2023-01-23T01:33:54;3.40;99.90
23685;DHT22;12020;51.384;6.908;2023-01-23T01:36:21;3.40;99.90
23685;DHT22;12020;51.384;6.908;2023-01-23T01:38:48;3.40;99.90
23685;DHT22;12020;51.384;6.908;2023-01-23T01:41:15;3.30;99.90
23685;DHT22;12020;51.384;6.908;2023-01-23T01:43:42;3.50;99.90
23685;DHT22;12020;51.384;6.908;2023-01-23T01:46:26;3.40;99.90
23685;DHT22;12020;51.384;6.908;2023-01-23T01:52:07;3.50;99.90
23685;DHT22;12020;51.384;6.908;2023-01-23T01:54:58;3.50;99.90
23685;DHT22;12020;51.384;6.908;2023-01-23T01:57:31;3.50;99.90
23685;DHT22;12020;51.384;6.908;2023-01-23T02:00:09;3.70;99.90
23685;DHT22;12020;51.384;6.908;2023-01-23T02:02:39;3.40;99.90
23685;DHT22;12020;51.384;6.908;2023-01-23T02:05:13;3.40;99.90
23685;DHT22;12020;51.384;6.908;2023-01-23T02:10:20;3.50;99.90
23685;DHT22;12020;51.384;6.908;2023-01-23T02:15:52;3.50;99.90
23685;DHT22;12020;51.384;6.908;2023-01-23T02:18:20;3.60;99.90
23685;DHT22;12020;51.384;6.908;2023-01-23T02:20:51;3.60;99.90
23685;DHT22;12020;51.384;6.908;2023-01-23T02:26:25;3.60;99.90
23685;DHT22;12020;51.384;6.908;2023-01-23T02:28:54;3.60;99.90
23685;DHT22;12020;51.384;6.908;2023-01-23T02:31:25;3.60;99.90
23685;DHT22;12020;51.384;6.908;2023-01-23T02:33:56;3.60;99.90
23685;DHT22;12020;51.384;6.908;2023-01-23T02:36:27;3.60;99.90
23685;DHT22;12020;51.384;6.908;2023-01-23T02:41:27;3.50;99.90
23685;DHT22;12020;51.384;6.908;2023-01-23T02:43:58;3.70;99.90
23685;DHT22;12020;51.384;6.908;2023-01-23T02:46:27;3.50;99.90
23685;DHT22;12020;51.384;6.908;2023-01-23T02:48:54;3.50;99.90
23685;DHT22;12020;51.384;6.908;2023-01-23T02:51:20;3.40;99.90
23685;DHT22;12020;51.384;6.908;2023-01-23T02:53:47;3.40;99.90
23685;DHT22;12020;51.384;6.908;2023-01-23T02:56:14;3.40;99.90
23685;DHT22;12020;51.384;6.908;2023-01-23T02:58:44;3.30;99.90
23685;DHT22;12020;51.384;6.908;2023-01-23T03:01:37;3.30;99.90
23685;DHT22;12020;51.384;6.908;2023-01-23T03:04:09;3.30;99.90
23685;DHT22;12020;51.384;6.908;2023-01-23T03:06:40;3.30;99.90
23685;DHT22;12020;51.384;6.908;2023-01-23T03:09:11;3.20;99.90
23685;DHT22;12020;51.384;6.908;2023-01-23T03:11:39;3.30;99.90
23685;DHT22;12020;51.384;6.908;2023-01-23T03:14:16;3.20;99.90
23685;DHT22;12020;51.384;6.908;2023-01-23T03:16:43;3.20;99.90
23685;DHT22;12020;51.384;6.908;2023-01-23T03:19:16;3.10;99.90
23685;DHT22;12020;51.384;6.908;2023-01-23T03:21:52;3.20;99.90
23685;DHT22;12020;51.384;6.908;2023-01-23T03:24:21;3.00;99.90
23685;DHT22;12020;51.384;6.908;2023-01-23T03:26:48;3.00;99.90
23685;DHT22;12020;51.384;6.908;2023-01-23T03:29:22;3.10;99.90
23685;DHT22;12020;51.384;6.908;2023-01-23T03:32:12;3.10;99.90
23685;DHT22;12020;51.384;6.908;2023-01-23T03:34:40;3.10;99.90
23685;DHT22;12020;51.384;6.908;2023-01-23T03:37:09;3.10;99.90
23685;DHT22;12020;51.384;6.908;2023-01-23T03:39:41;3.40;99.90
23685;DHT22;12020;51.384;6.908;2023-01-23T03:42:27;3.20;99.90
23685;DHT22;12020;51.384;6.908;2023-01-23T03:44:56;3.20;99.90
23685;DHT22;12020;51.384;6.908;2023-01-23T03:47:22;3.20;99.90
23685;DHT22;12020;51.384;6.908;2023-01-23T03:49:47;3.20;99.90
23685;DHT22;12020;51.384;6.908;2023-01-23T03:52:13;3.20;99.90
23685;DHT22;12020;51.384;6.908;2023-01-23T03:54:39;3.30;99.90
23685;DHT22;12020;51.384;6.908;2023-01-23T03:57:05;3.30;99.90
23685;DHT22;12020;51.384;6.908;2023-01-23T03:59:30;3.20;99.90
23685;DHT22;12020;51.384;6.908;2023-01-23T04:02:02;3.20;99.90
23685;DHT22;12020;51.384;6.908;2023-01-23T04:04:32;3.20;99.90
23685;DHT22;12020;51.384;6.908;2023-01-23T04:07:05;3.20;99.90
23685;DHT22;12020;51.384;6.908;2023-01-23T04:09:36;3.20;99.90
23685;DHT22;12020;51.384;6.908;2023-01-23T04:12:03;3.30;99.90
23685;DHT22;12020;51.384;6.908;2023-01-23T04:14:29;3.20;99.90
23685;DHT22;12020;51.384;6.908;2023-01-23T04:16:59;3.40;99.90
23685;DHT22;12020;51.384;6.908;2023-01-23T04:19:43;3.20;99.90
23685;DHT22;12020;51.384;6.908;2023-01-23T04:22:09;3.20;99.90
23685;DHT22;12020;51.384;6.908;2023-01-23T04:24:35;3.10;99.90
23685;DHT22;12020;51.384;6.908;2023-01-23T04:27:10;3.10;99.90
23685;DHT22;12020;51.384;6.908;2023-01-23T04:29:36;3.00;99.90
23685;DHT22;12020;51.384;6.908;2023-01-23T04:32:07;3.10;99.90
23685;DHT22;12020;51.384;6.908;2023-01-23T04:34:50;3.40;99.90
23685;DHT22;12020;51.384;6.908;2023-01-23T04:37:20;3.10;99.90
23685;DHT22;12020;51.384;6.908;2023-01-23T04:39:49;3.30;99.90
23685;DHT22;12020;51.384;6.908;2023-01-23T04:42:15;3.10;99.90
23685;DHT22;12020;51.384;6.908;2023-01-23T04:44:41;3.10;99.90
23685;DHT22;12020;51.384;6.908;2023-01-23T04:47:09;3.10;99.90
23685;DHT22;12020;51.384;6.908;2023-01-23T04:49:41;3.20;99.90
23685;DHT22;12020;51.384;6.908;2023-01-23T04:52:11;3.20;99.90
23685;DHT22;12020;51.384;6.908;2023-01-23T04:54:39;3.20;99.90
23685;DHT22;12020;51.384;6.908;2023-01-23T04:57:04;3.20;99.90
23685;DHT22;12020;51.384;6.908;2023-01-23T04:59:30;3.20;99.90
23685;DHT22;12020;51.384;6.908;2023-01-23T05:02:03;3.20;99.90
23685;DHT22;12020;51.384;6.908;2023-01-23T05:04:32;3.20;99.90
23685;DHT22;12020;51.384;6.908;2023-01-23T05:07:23;3.20;99.90
23685;DHT22;12020;51.384;6.908;2023-01-23T05:09:55;3.20;99.90
23685;DHT22;12020;51.384;6.908;2023-01-23T05:12:24;3.20;99.90
23685;DHT22;12020;51.384;6.908;2023-01-23T05:14:56;3.20;99.90
23685;DHT22;12020;51.384;6.908;2023-01-23T05:17:27;3.20;99.90
23685;DHT22;12020;51.384;6.908;2023-01-23T05:20:10;3.20;99.90
23685;DHT22;12020;51.384;6.908;2023-01-23T05:22:38;3.20;99.90
23685;DHT22;12020;51.384;6.908;2023-01-23T05:25:24;3.10;99.90
23685;DHT22;12020;51.384;6.908;2023-01-23T05:27:50;3.20;99.90
23685;DHT22;12020;51.384;6.908;2023-01-23T05:30:16;3.20;99.90
23685;DHT22;12020;51.384;6.908;2023-01-23T05:32:43;3.20;99.90
23685;DHT22;12020;51.384;6.908;2023-01-23T05:35:12;3.20;99.90
23685;DHT22;12020;51.384;6.908;2023-01-23T05:37:39;3.20;99.90
23685;DHT22;12020;51.384;6.908;2023-01-23T05:40:07;3.20;99.90
23685;DHT22;12020;51.384;6.908;2023-01-23T05:42:33;3.20;99.90
23685;DHT22;12020;51.384;6.908;2023-01-23T05:45:00;3.20;99.90
23685;DHT22;12020;51.384;6.908;2023-01-23T05:47:29;3.20;99.90
23685;DHT22;12020;51.384;6.908;2023-01-23T05:50:11;3.20;99.90
23685;DHT22;12020;51.384;6.908;2023-01-23T05:52:46;3.20;99.90
23685;DHT22;12020;51.384;6.908;2023-01-23T05:55:16;3.20;99.90
23685;DHT22;12020;51.384;6.908;2023-01-23T05:57:44;3.20;99.90
23685;DHT22;12020;51.384;6.908;2023-01-23T06:00:12;3.10;99.90
23685;DHT22;12020;51.384;6.908;2023-01-23T06:02:47;3.20;99.90
23685;DHT22;12020;51.384;6.908;2023-01-23T06:05:20;3.10;99.90
23685;DHT22;12020;51.384;6.908;2023-01-23T06:07:49;3.10;99.90
23685;DHT22;12020;51.384;6.908;2023-01-23T06:10:16;3.10;99.90
23685;DHT22;12020;51.384;6.908;2023-01-23T06:12:51;3.10;99.90
23685;DHT22;12020;51.384;6.908;2023-01-23T06:15:27;3.10;99.90
23685;DHT22;12020;51.384;6.908;2023-01-23T06:17:58;3.00;99.90
23685;DHT22;12020;51.384;6.908;2023-01-23T06:20:26;3.00;99.90
23685;DHT22;12020;51.384;6.908;2023-01-23T06:22:53;3.10;99.90
23685;DHT22;12020;51.384;6.908;2023-01-23T06:25:21;3.10;99.90
23685;DHT22;12020;51.384;6.908;2023-01-23T06:27:48;3.10;99.90
23685;DHT22;12020;51.384;6.908;2023-01-23T06:30:17;3.10;99.90
23685;DHT22;12020;51.384;6.908;2023-01-23T06:32:45;3.10;99.90
23685;DHT22;12020;51.384;6.908;2023-01-23T06:35:12;3.10;99.90
23685;DHT22;12020;51.384;6.908;2023-01-23T06:37:37;3.10;99.90
23685;DHT22;12020;51.384;6.908;2023-01-23T06:40:18;3.10;99.90
23685;DHT22;12020;51.384;6.908;2023-01-23T06:42:54;3.10;99.90
23685;DHT22;12020;51.384;6.908;2023-01-23T06:45:20;3.10;99.90
23685;DHT22;12020;51.384;6.908;2023-01-23T06:47:45;3.10;99.90
23685;DHT22;12020;51.384;6.908;2023-01-23T06:50:11;3.30;99.90
23685;DHT22;12020;51.384;6.908;2023-01-23T06:52:36;3.10;99.90
23685;DHT22;12020;51.384;6.908;2023-01-23T06:55:07;3.20;99.90
23685;DHT22;12020;51.384;6.908;2023-01-23T06:57:38;3.20;99.90
23685;DHT22;12020;51.384;6.908;2023-01-23T07:00:05;3.20;99.90
23685;DHT22;12020;51.384;6.908;2023-01-23T07:02:40;3.40;99.90
23685;DHT22;12020;51.384;6.908;2023-01-23T07:05:19;3.40;99.90
23685;DHT22;12020;51.384;6.908;2023-01-23T07:07:57;3.40;99.90
23685;DHT22;12020;51.384;6.908;2023-01-23T07:10:24;3.40;99.90
23685;DHT22;12020;51.384;6.908;2023-01-23T07:12:50;3.60;99.90
23685;DHT22;12020;51.384;6.908;2023-01-23T07:15:16;3.70;99.90
23685;DHT22;12020;51.384;6.908;2023-01-23T07:17:42;3.70;99.90
23685;DHT22;12020;51.384;6.908;2023-01-23T07:20:08;3.70;99.90
23685;DHT22;12020;51.384;6.908;2023-01-23T07:22:41;3.60;99.90
23685;DHT22;12020;51.384;6.908;2023-01-23T07:25:07;3.60;99.90
23685;DHT22;12020;51.384;6.908;2023-01-23T07:27:33;3.60;99.90
23685;DHT22;12020;51.384;6.908;2023-01-23T07:29:59;3.60;99.90
23685;DHT22;12020;51.384;6.908;2023-01-23T07:32:24;3.60;99.90
23685;DHT22;12020;51.384;6.908;2023-01-23T07:34:50;3.50;99.90
23685;DHT22;12020;51.384;6.908;2023-01-23T07:37:17;3.60;99.90
23685;DHT22;12020;51.384;6.908;2023-01-23T07:39:43;3.50;99.90
23685;DHT22;12020;51.384;6.908;2023-01-23T07:42:10;3.60;99.90
23685;DHT22;12020;51.384;6.908;2023-01-23T07:44:35;3.60;99.90
23685;DHT22;12020;51.384;6.908;2023-01-23T07:47:01;3.80;99.90
23685;DHT22;12020;51.384;6.908;2023-01-23T07:49:27;3.70;99.90
23685;DHT22;12020;51.384;6.908;2023-01-23T07:51:52;3.60;99.90
23685;DHT22;12020;51.384;6.908;2023-01-23T07:54:18;3.50;99.90
23685;DHT22;12020;51.384;6.908;2023-01-23T07:56:44;3.50;99.90
23685;DHT22;12020;51.384;6.908;2023-01-23T07:59:11;3.50;99.90
23685;DHT22;12020;51.384;6.908;2023-01-23T08:01:37;3.50;99.90
23685;DHT22;12020;51.384;6.908;2023-01-23T08:04:02;3.50;99.90
23685;DHT22;12020;51.384;6.908;2023-01-23T08:06:28;3.50;99.90
23685;DHT22;12020;51.384;6.908;2023-01-23T08:08:54;3.60;99.90
23685;DHT22;12020;51.384;6.908;2023-01-23T08:11:19;3.50;99.90
23685;DHT22;12020;51.384;6.908;2023-01-23T08:13:49;3.60;99.90
23685;DHT22;12020;51.384;6.908;2023-01-23T08:16:15;3.60;99.90
23685;DHT22;12020;51.384;6.908;2023-01-23T08:18:41;3.60;99.90
23685;DHT22;12020;51.384;6.908;2023-01-23T08:21:06;3.60;99.90
23685;DHT22;12020;51.384;6.908;2023-01-23T08:23:32;3.60;99.90
23685;DHT22;12020;51.384;6.908;2023-01-23T08:26:01;3.70;99.90
23685;DHT22;12020;51.384;6.908;2023-01-23T08:28:27;3.60;99.90
23685;DHT22;12020;51.384;6.908;2023-01-23T08:30:53;3.60;99.90
23685;DHT22;12020;51.384;6.908;2023-01-23T08:33:20;3.60;99.90
23685;DHT22;12020;51.384;6.908;2023-01-23T08:35:55;3.60;99.90
23685;DHT22;12020;51.384;6.908;2023-01-23T08:38:21;3.60;99.90
23685;DHT22;12020;51.384;6.908;2023-01-23T08:40:49;3.70;99.90
23685;DHT22;12020;51.384;6.908;2023-01-23T08:43:17;3.60;99.90
23685;DHT22;12020;51.384;6.908;2023-01-23T08:45:51;3.70;99.90
23685;DHT22;12020;51.384;6.908;2023-01-23T08:48:17;3.60;99.90
23685;DHT22;12020;51.384;6.908;2023-01-23T08:50:43;3.60;99.90
23685;DHT22;12020;51.384;6.908;2023-01-23T08:53:10;3.60;99.90
23685;DHT22;12020;51.384;6.908;2023-01-23T08:55:35;3.60;99.90
23685;DHT22;12020;51.384;6.908;2023-01-23T08:58:04;3.90;99.90
23685;DHT22;12020;51.384;6.908;2023-01-23T09:00:29;3.70;99.90
23685;DHT22;12020;51.384;6.908;2023-01-23T09:02:58;3.70;99.90
23685;DHT22;12020;51.384;6.908;2023-01-23T09:05:24;3.70;99.90
23685;DHT22;12020;51.384;6.908;2023-01-23T09:07:50;3.60;99.90
23685;DHT22;12020;51.384;6.908;2023-01-23T09:10:15;3.70;99.90
23685;DHT22;12020;51.384;6.908;2023-01-23T09:12:41;3.70;99.90
23685;DHT22;12020;51.384;6.908;2023-01-23T09:15:08;3.70;99.90
23685;DHT22;12020;51.384;6.908;2023-01-23T09:17:34;3.70;99.90
23685;DHT22;12020;51.384;6.908;2023-01-23T09:20:00;3.70;99.90
23685;DHT22;12020;51.384;6.908;2023-01-23T09:22:26;3.70;99.90
23685;DHT22;12020;51.384;6.908;2023-01-23T09:24:51;3.70;99.90
23685;DHT22;12020;51.384;6.908;2023-01-23T09:27:18;3.80;99.90
23685;DHT22;12020;51.384;6.908;2023-01-23T09:29:44;3.80;99.90
23685;DHT22;12020;51.384;6.908;2023-01-23T09:32:09;3.80;99.90
23685;DHT22;12020;51.384;6.908;2023-01-23T09:34:35;3.80;99.90
23685;DHT22;12020;51.384;6.908;2023-01-23T09:37:01;3.80;99.90
23685;DHT22;12020;51.384;6.908;2023-01-23T09:39:26;3.80;99.90
23685;DHT22;12020;51.384;6.908;2023-01-23T09:41:52;3.80;99.90
23685;DHT22;12020;51.384;6.908;2023-01-23T09:44:30;3.90;99.90
23685;DHT22;12020;51.384;6.908;2023-01-23T09:47:01;3.90;99.90
23685;DHT22;12020;51.384;6.908;2023-01-23T09:52:14;4.00;99.90
23685;DHT22;12020;51.384;6.908;2023-01-23T09:57:19;4.10;99.90
23685;DHT22;12020;51.384;6.908;2023-01-23T10:00:03;4.10;99.90
23685;DHT22;12020;51.384;6.908;2023-01-23T10:02:29;4.00;99.90
23685;DHT22;12020;51.384;6.908;2023-01-23T10:04:56;4.00;99.90
23685;DHT22;12020;51.384;6.908;2023-01-23T10:10:02;4.10;99.90
23685;DHT22;12020;51.384;6.908;2023-01-23T10:12:52;4.10;99.90
23685;DHT22;12020;51.384;6.908;2023-01-23T10:16:03;4.10;99.90
23685;DHT22;12020;51.384;6.908;2023-01-23T10:23:46;4.20;99.90
23685;DHT22;12020;51.384;6.908;2023-01-23T10:26:25;4.30;99.90
23685;DHT22;12020;51.384;6.908;2023-01-23T10:29:05;4.30;99.90
23685;DHT22;12020;51.384;6.908;2023-01-23T10:31:50;4.30;99.90
23685;DHT22;12020;51.384;6.908;2023-01-23T10:34:27;4.30;99.90
23685;DHT22;12020;51.384;6.908;2023-01-23T10:39:28;4.30;99.90
23685;DHT22;12020;51.384;6.908;2023-01-23T10:41:55;4.40;99.90
23685;DHT22;12020;51.384;6.908;2023-01-23T10:44:21;4.50;99.90
23685;DHT22;12020;51.384;6.908;2023-01-23T10:46:49;4.60;99.90
23685;DHT22;12020;51.384;6.908;2023-01-23T10:49:31;4.40;99.90
23685;DHT22;12020;51.384;6.908;2023-01-23T10:51:57;4.40;99.90
23685;DHT22;12020;51.384;6.908;2023-01-23T10:54:26;4.40;99.90
23685;DHT22;12020;51.384;6.908;2023-01-23T10:59:38;4.40;99.90
23685;DHT22;12020;51.384;6.908;2023-01-23T11:04:38;4.50;99.90
23685;DHT22;12020;51.384;6.908;2023-01-23T11:07:06;4.50;99.90
23685;DHT22;12020;51.384;6.908;2023-01-23T11:09:53;4.50;99.90
23685;DHT22;12020;51.384;6.908;2023-01-23T11:14:46;4.50;99.90
23685;DHT22;12020;51.384;6.908;2023-01-23T11:17:23;4.60;99.90
23685;DHT22;12020;51.384;6.908;2023-01-23T11:19:51;4.60;99.90
23685;DHT22;12020;51.384;6.908;2023-01-23T11:22:30;4.70;99.90
23685;DHT22;12020;51.384;6.908;2023-01-23T11:24:58;4.50;99.90
23685;DHT22;12020;51.384;6.908;2023-01-23T11:27:27;4.60;99.90
23685;DHT22;12020;51.384;6.908;2023-01-23T11:30:21;4.50;99.90
23685;DHT22;12020;51.384;6.908;2023-01-23T11:35:52;4.50;99.90
23685;DHT22;12020;51.384;6.908;2023-01-23T11:38:24;4.60;99.90
23685;DHT22;12020;51.384;6.908;2023-01-23T11:40:51;4.60;99.90
23685;DHT22;12020;51.384;6.908;2023-01-23T11:43:17;4.70;99.90
23685;DHT22;12020;51.384;6.908;2023-01-23T11:46:09;4.70;99.90
23685;DHT22;12020;51.384;6.908;2023-01-23T11:48:59;4.80;99.90
23685;DHT22;12020;51.384;6.908;2023-01-23T11:51:35;4.80;99.90
23685;DHT22;12020;51.384;6.908;2023-01-23T11:54:22;4.80;99.90
23685;DHT22;12020;51.384;6.908;2023-01-23T12:11:07;4.70;99.90
23685;DHT22;12020;51.384;6.908;2023-01-23T12:14:03;4.70;99.90
23685;DHT22;12020;51.384;6.908;2023-01-23T12:17:04;4.70;99.90
23685;DHT22;12020;51.384;6.908;2023-01-23T12:25:24;4.90;99.90
23685;DHT22;12020;51.384;6.908;2023-01-23T12:28:19;4.90;99.90
23685;DHT22;12020;51.384;6.908;2023-01-23T12:34:15;4.90;99.90
23685;DHT22;12020;51.384;6.908;2023-01-23T12:42:30;4.90;99.90
23685;DHT22;12020;51.384;6.908;2023-01-23T12:53:19;4.90;99.90
23685;DHT22;12020;51.384;6.908;2023-01-23T12:58:36;4.90;99.90
23685;DHT22;12020;51.384;6.908;2023-01-23T13:04:08;4.90;99.90
23685;DHT22;12020;51.384;6.908;2023-01-23T13:07:00;4.90;99.90
23685;DHT22;12020;51.384;6.908;2023-01-23T13:12:26;4.90;99.90
23685;DHT22;12020;51.384;6.908;2023-01-23T13:20:30;5.00;99.90
23685;DHT22;12020;51.384;6.908;2023-01-23T13:26:24;5.00;99.90
23685;DHT22;12020;51.384;6.908;2023-01-23T13:29:02;5.00;99.90
23685;DHT22;12020;51.384;6.908;2023-01-23T13:31:42;5.00;99.90
23685;DHT22;12020;51.384;6.908;2023-01-23T13:36:46;5.00;99.90
23685;DHT22;12020;51.384;6.908;2023-01-23T13:39:27;5.00;99.90
23685;DHT22;12020;51.384;6.908;2023-01-23T13:50:41;5.00;99.90
23685;DHT22;12020;51.384;6.908;2023-01-23T13:53:21;5.00;99.90
23685;DHT22;12020;51.384;6.908;2023-01-23T13:56:15;4.90;99.90
23685;DHT22;12020;51.384;6.908;2023-01-23T13:59:00;4.90;99.90
23685;DHT22;12020;51.384;6.908;2023-01-23T14:01:29;4.80;99.90
23685;DHT22;12020;51.384;6.908;2023-01-23T14:04:19;4.80;99.90
23685;DHT22;12020;51.384;6.908;2023-01-23T14:07:22;4.80;99.90
23685;DHT22;12020;51.384;6.908;2023-01-23T14:12:37;4.80;99.90
23685;DHT22;12020;51.384;6.908;2023-01-23T14:18:34;4.90;99.90
23685;DHT22;12020;51.384;6.908;2023-01-23T14:23:52;4.90;99.90
23685;DHT22;12020;51.384;6.908;2023-01-23T14:26:23;4.90;99.90
23685;DHT22;12020;51.384;6.908;2023-01-23T14:28:57;4.90;99.90
23685;DHT22;12020;51.384;6.908;2023-01-23T14:31:29;4.80;99.90
23685;DHT22;12020;51.384;6.908;2023-01-23T14:34:13;4.80;99.90
23685;DHT22;12020;51.384;6.908;2023-01-23T14:36:42;4.80;99.90
23685;DHT22;12020;51.384;6.908;2023-01-23T14:39:20;4.80;99.90
23685;DHT22;12020;51.384;6.908;2023-01-23T14:41:48;4.80;99.90
23685;DHT22;12020;51.384;6.908;2023-01-23T14:44:39;4.80;99.90
23685;DHT22;12020;51.384;6.908;2023-01-23T14:47:19;4.80;99.90
23685;DHT22;12020;51.384;6.908;2023-01-23T14:49:47;4.80;99.90
23685;DHT22;12020;51.384;6.908;2023-01-23T14:52:25;4.80;99.90
23685;DHT22;12020;51.384;6.908;2023-01-23T14:54:51;4.70;99.90
23685;DHT22;12020;51.384;6.908;2023-01-23T14:57:19;4.70;99.90
23685;DHT22;12020;51.384;6.908;2023-01-23T14:59:46;4.70;99.90
23685;DHT22;12020;51.384;6.908;2023-01-23T15:02:34;4.80;99.90
23685;DHT22;12020;51.384;6.908;2023-01-23T15:05:23;4.90;99.90
23685;DHT22;12020;51.384;6.908;2023-01-23T15:08:18;4.80;99.90
23685;DHT22;12020;51.384;6.908;2023-01-23T15:10:47;4.70;99.90
23685;DHT22;12020;51.384;6.908;2023-01-23T15:13:24;4.70;99.90
23685;DHT22;12020;51.384;6.908;2023-01-23T15:15:59;4.60;99.90
23685;DHT22;12020;51.384;6.908;2023-01-23T15:20:57;4.60;99.90
23685;DHT22;12020;51.384;6.908;2023-01-23T15:23:32;4.60;99.90
23685;DHT22;12020;51.384;6.908;2023-01-23T15:28:48;4.50;99.90
23685;DHT22;12020;51.384;6.908;2023-01-23T15:31:31;4.50;99.90
23685;DHT22;12020;51.384;6.908;2023-01-23T15:44:37;4.60;99.90
23685;DHT22;12020;51.384;6.908;2023-01-23T15:47:03;4.60;99.90
23685;DHT22;12020;51.384;6.908;2023-01-23T15:49:34;4.60;99.90
23685;DHT22;12020;51.384;6.908;2023-01-23T15:52:16;4.60;99.90
23685;DHT22;12020;51.384;6.908;2023-01-23T15:54:42;4.60;99.90
23685;DHT22;12020;51.384;6.908;2023-01-23T15:57:11;4.60;99.90
23685;DHT22;12020;51.384;6.908;2023-01-23T15:59:37;4.60;99.90
23685;DHT22;12020;51.384;6.908;2023-01-23T16:02:05;4.60;99.90
23685;DHT22;12020;51.384;6.908;2023-01-23T16:04:33;4.60;99.90
23685;DHT22;12020;51.384;6.908;2023-01-23T16:07:04;4.60;99.90
23685;DHT22;12020;51.384;6.908;2023-01-23T16:09:32;4.60;99.90
23685;DHT22;12020;51.384;6.908;2023-01-23T16:11:59;4.50;99.90
23685;DHT22;12020;51.384;6.908;2023-01-23T16:14:25;4.50;99.90
23685;DHT22;12020;51.384;6.908;2023-01-23T16:16:51;4.60;99.90
23685;DHT22;12020;51.384;6.908;2023-01-23T16:19:17;4.60;99.90
23685;DHT22;12020;51.384;6.908;2023-01-23T16:21:43;4.70;99.90
23685;DHT22;12020;51.384;6.908;2023-01-23T16:24:22;4.60;99.90
23685;DHT22;12020;51.384;6.908;2023-01-23T16:26:49;4.50;99.90
23685;DHT22;12020;51.384;6.908;2023-01-23T16:29:30;4.40;99.90
23685;DHT22;12020;51.384;6.908;2023-01-23T16:31:57;4.50;99.90
23685;DHT22;12020;51.384;6.908;2023-01-23T16:34:24;4.40;99.90
23685;DHT22;12020;51.384;6.908;2023-01-23T16:36:52;4.40;99.90
23685;DHT22;12020;51.384;6.908;2023-01-23T16:39:24;4.40;99.90
23685;DHT22;12020;51.384;6.908;2023-01-23T16:41:51;4.40;99.90
23685;DHT22;12020;51.384;6.908;2023-01-23T16:44:20;4.30;99.90
23685;DHT22;12020;51.384;6.908;2023-01-23T16:46:49;4.30;99.90
23685;DHT22;12020;51.384;6.908;2023-01-23T16:49:16;4.30;99.90
23685;DHT22;12020;51.384;6.908;2023-01-23T16:51:46;4.30;99.90
23685;DHT22;12020;51.384;6.908;2023-01-23T16:54:16;4.30;99.90
23685;DHT22;12020;51.384;6.908;2023-01-23T16:56:42;4.30;99.90
23685;DHT22;12020;51.384;6.908;2023-01-23T16:59:32;4.40;99.90
23685;DHT22;12020;51.384;6.908;2023-01-23T17:01:59;4.40;99.90
23685;DHT22;12020;51.384;6.908;2023-01-23T17:04:26;4.40;99.90
23685;DHT22;12020;51.384;6.908;2023-01-23T17:06:53;4.40;99.90
23685;DHT22;12020;51.384;6.908;2023-01-23T17:09:18;4.30;99.90
23685;DHT22;12020;51.384;6.908;2023-01-23T17:11:53;4.30;99.90
23685;DHT22;12020;51.384;6.908;2023-01-23T17:14:27;4.30;99.90
23685;DHT22;12020;51.384;6.908;2023-01-23T17:17:01;4.30;99.90
23685;DHT22;12020;51.384;6.908;2023-01-23T17:19:30;4.30;99.90
23685;DHT22;12020;51.384;6.908;2023-01-23T17:21:58;4.30;99.90
23685;DHT22;12020;51.384;6.908;2023-01-23T17:24:24;4.30;99.90
23685;DHT22;12020;51.384;6.908;2023-01-23T17:26:50;4.30;99.90
23685;DHT22;12020;51.384;6.908;2023-01-23T17:29:16;4.30;99.90
23685;DHT22;12020;51.384;6.908;2023-01-23T17:31:42;4.30;99.90
23685;DHT22;12020;51.384;6.908;2023-01-23T17:34:16;4.20;99.90
23685;DHT22;12020;51.384;6.908;2023-01-23T17:36:43;4.30;99.90
23685;DHT22;12020;51.384;6.908;2023-01-23T17:39:10;4.20;99.90
23685;DHT22;12020;51.384;6.908;2023-01-23T17:41:36;4.30;99.90
23685;DHT22;12020;51.384;6.908;2023-01-23T17:44:02;4.30;99.90
23685;DHT22;12020;51.384;6.908;2023-01-23T17:46:30;4.20;99.90
23685;DHT22;12020;51.384;6.908;2023-01-23T17:48:56;4.20;99.90
23685;DHT22;12020;51.384;6.908;2023-01-23T17:51:22;4.30;99.90
23685;DHT22;12020;51.384;6.908;2023-01-23T17:53:49;4.30;99.90
23685;DHT22;12020;51.384;6.908;2023-01-23T17:56:15;4.30;99.90
23685;DHT22;12020;51.384;6.908;2023-01-23T17:58:41;4.30;99.90
23685;DHT22;12020;51.384;6.908;2023-01-23T18:01:17;4.30;99.90
23685;DHT22;12020;51.384;6.908;2023-01-23T18:03:44;4.30;99.90
23685;DHT22;12020;51.384;6.908;2023-01-23T18:06:10;4.20;99.90
23685;DHT22;12020;51.384;6.908;2023-01-23T18:08:36;4.20;99.90
23685;DHT22;12020;51.384;6.908;2023-01-23T18:11:15;4.20;99.90
23685;DHT22;12020;51.384;6.908;2023-01-23T18:13:57;4.30;99.90
23685;DHT22;12020;51.384;6.908;2023-01-23T18:16:31;4.30;99.90
23685;DHT22;12020;51.384;6.908;2023-01-23T18:19:19;4.30;99.90